Airfield :
LOGIN :

Register | Disclaimer

   EN    FR    IT 

 










Legend :    VFR   Marginal VFR   IFR   Intensive IFR   Very Intensive IFR
Visi :
Ceiling :
>= 8 km
>= 3000ft
5 to 8 km
1000 to 3000 ft
1500m to 5 km
500 to 1000 ft
800 to 1500m
200 to 500 ft
< 800m
< 200 ft
Symbols :   Thunderstorms  Fog  Heavy snow  Heavy precipitations  Wind > 20 kt
SIGMETs :     Misc.  Thunderstorms  Icing  Turbulence  Mountain Waves  Volcanic Ashes






- Airport Elevation : 83 ft
- IATA code : LHR


EGLL - London Heathrow

CURRENT METAR :
  • 221450Z AUTO 12011KT 9999 FEW045 09/08 Q0995 NOSIG

EXPIRED METARs :
  • 221420Z AUTO 12011KT 9999 BKN048 09/08 Q0995 NOSIG
  • 221350Z AUTO 13009KT 9999 -RA FEW028 SCT041 09/08 Q0995 NOSIG
  • 221320Z AUTO 13010KT 9999 SCT017 BKN030 09/08 Q0995 TEMPO RA
  • 221250Z AUTO 12009KT 9999 BKN016/// BKN021/// BKN030/// //////TCU 09/08 Q0995 TEMPO RA

TAF TAF EGLL
Valid from the 22 at 12:00 until the 23 at 18:00 UTC


221058Z 2212/2318 15008KT 9999 SCT020
TEMPO 2212/2215 6000 SHRA BKN012
PROB30
TEMPO 2212/2215 4000 +SHRA
PROB30
TEMPO 2215/2221 10015G25KT
BECMG 2216/2219 09012KT
PROB40
TEMPO 2220/2224 7000 BKN012
TEMPO 2300/2305 6000 RA BKN009
BECMG 2305/2308 8000 BKN010
TEMPO 2305/2318 4000 RADZ BKN008
PROB40
TEMPO 2316/2318 BKN004



MET'MAP, your aeronautical weather chart ! - Copyright ORBIFLY December 2007 - Disclaimer

ORBIFLY MET'MAP TEAM :

Programming & Development : Alexandra Zaïnal
Concept & Development : Baudouin d'Aumeries
Co-Development & Prog : Marc-Olivier Méhu
Technical & hardware support : Manuel Goepfert

Contact : metmap@orbifly.com




SOURCES & CREDITS :

   NOAA